createdAt,value
2023-04-17T00:02:15.894Z,5.13
2023-04-17T00:04:45.495Z,4.55
2023-04-17T00:07:14.915Z,4.95
2023-04-17T00:09:42.884Z,5.03
2023-04-17T00:12:10.766Z,4.70
2023-04-17T00:14:38.634Z,4.70
2023-04-17T00:17:06.533Z,4.47
2023-04-17T00:19:34.418Z,5.03
2023-04-17T00:22:02.335Z,4.43
2023-04-17T00:24:31.546Z,4.82
2023-04-17T00:26:59.478Z,4.40
2023-04-17T00:29:27.390Z,4.60
2023-04-17T00:31:55.321Z,4.03
2023-04-17T00:34:23.198Z,4.82
2023-04-17T00:36:51.089Z,4.75
2023-04-17T00:39:18.968Z,4.30
2023-04-17T00:41:48.190Z,4.85
2023-04-17T00:44:16.085Z,4.78
2023-04-17T00:46:43.966Z,4.75
2023-04-17T00:49:12.906Z,4.40
2023-04-17T00:51:40.920Z,4.10
2023-04-17T00:54:08.925Z,3.83
2023-04-17T00:56:36.774Z,4.50
2023-04-17T00:59:06.022Z,4.20
2023-04-17T01:01:33.958Z,4.30
2023-04-17T01:04:02.335Z,4.15
2023-04-17T01:06:30.356Z,3.92
2023-04-17T01:08:58.227Z,3.88
2023-04-17T01:11:26.255Z,3.90
2023-04-17T01:13:54.141Z,4.35
2023-04-17T01:16:24.275Z,4.15
2023-04-17T01:18:52.220Z,4.43
2023-04-17T01:21:21.037Z,3.65
2023-04-17T01:23:51.944Z,3.95
2023-04-17T01:26:22.747Z,4.15
2023-04-17T01:28:52.689Z,3.70
2023-04-17T01:31:20.901Z,3.80
2023-04-17T01:33:48.972Z,3.67
2023-04-17T01:36:17.133Z,3.72
2023-04-17T01:38:45.226Z,3.70
2023-04-17T01:41:13.240Z,3.88
2023-04-17T01:43:43.175Z,3.88
2023-04-17T01:46:11.359Z,3.67
2023-04-17T01:48:39.377Z,3.78
2023-04-17T01:51:07.350Z,3.70
2023-04-17T01:53:35.399Z,3.60
2023-04-17T01:56:03.359Z,3.83
2023-04-17T01:58:31.267Z,3.58
2023-04-17T02:01:00.536Z,3.58
2023-04-17T02:03:28.598Z,3.58
2023-04-17T02:05:56.630Z,3.70
2023-04-17T02:08:24.551Z,3.50
2023-04-17T02:10:52.434Z,3.40
2023-04-17T02:13:20.304Z,3.63
2023-04-17T02:15:48.278Z,3.53
2023-04-17T02:18:17.608Z,3.72
2023-04-17T02:20:45.510Z,3.58
2023-04-17T02:23:13.472Z,3.38
2023-04-17T02:25:41.345Z,3.30
2023-04-17T02:28:09.247Z,3.55
2023-04-17T02:30:37.579Z,3.58
2023-04-17T02:33:05.501Z,3.60
2023-04-17T02:35:35.412Z,3.40
2023-04-17T02:38:03.332Z,3.40
2023-04-17T02:40:34.033Z,3.50
2023-04-17T02:43:03.261Z,3.45
2023-04-17T02:45:31.727Z,3.47
2023-04-17T02:48:02.151Z,3.20
2023-04-17T02:50:30.923Z,3.58
2023-04-17T02:53:11.713Z,3.42
2023-04-17T02:55:39.635Z,3.58
2023-04-17T02:58:07.576Z,3.13
2023-04-17T03:00:35.479Z,3.33
2023-04-17T03:03:03.828Z,3.38
2023-04-17T03:05:32.043Z,3.50
2023-04-17T03:08:01.528Z,3.10
2023-04-17T03:10:35.908Z,3.65
2023-04-17T03:13:04.485Z,3.35
2023-04-17T03:15:35.115Z,3.45
2023-04-17T03:18:03.123Z,3.20
2023-04-17T03:20:31.116Z,3.10
2023-04-17T03:22:59.052Z,3.25
2023-04-17T03:25:27.234Z,3.50
2023-04-17T03:27:56.913Z,3.40
2023-04-17T03:30:30.717Z,3.20
2023-04-17T03:33:01.855Z,3.53
2023-04-17T03:35:31.983Z,3.13
2023-04-17T03:38:00.007Z,3.20
2023-04-17T03:40:27.965Z,3.33
2023-04-17T03:42:57.203Z,3.53
2023-04-17T03:45:25.421Z,3.60
2023-04-17T03:47:53.417Z,3.13
2023-04-17T03:50:21.369Z,3.10
2023-04-17T03:52:55.879Z,3.30
2023-04-17T03:55:26.368Z,3.50
2023-04-17T03:57:54.889Z,3.30
2023-04-17T04:00:26.019Z,3.20
2023-04-17T04:02:59.002Z,3.35
2023-04-17T04:05:31.231Z,3.17
2023-04-17T04:07:59.320Z,3.20
2023-04-17T04:10:36.832Z,3.53
2023-04-17T04:13:04.762Z,3.50
2023-04-17T04:15:34.391Z,3.20
2023-04-17T04:18:05.944Z,3.75
2023-04-17T04:20:33.990Z,3.38
2023-04-17T04:23:13.136Z,2.83
2023-04-17T04:25:43.587Z,3.30
2023-04-17T04:28:23.768Z,3.38
2023-04-17T04:30:53.603Z,3.05
2023-04-17T04:33:23.325Z,3.55
2023-04-17T04:35:56.018Z,3.00
2023-04-17T04:38:29.891Z,3.55
2023-04-17T04:41:06.132Z,3.40
2023-04-17T04:43:34.944Z,3.70
2023-04-17T04:46:05.758Z,3.20
2023-04-17T04:48:38.910Z,3.60
2023-04-17T04:51:07.773Z,3.42
2023-04-17T04:53:35.938Z,3.40
2023-04-17T04:56:03.890Z,3.55
2023-04-17T04:58:32.809Z,3.67
2023-04-17T05:01:04.090Z,3.30
2023-04-17T05:03:39.258Z,3.50
2023-04-17T05:06:09.712Z,3.58
2023-04-17T05:09:00.938Z,3.30
2023-04-17T05:11:29.189Z,3.53
2023-04-17T05:13:58.923Z,3.53
2023-04-17T05:16:30.938Z,3.65
2023-04-17T05:19:01.185Z,3.35
2023-04-17T05:21:47.553Z,3.45
2023-04-17T05:24:17.272Z,3.67
2023-04-17T05:26:45.481Z,3.20
2023-04-17T05:29:14.448Z,3.53
2023-04-17T05:31:42.703Z,3.88
2023-04-17T05:34:24.532Z,4.07
2023-04-17T05:36:52.461Z,4.22
2023-04-17T05:39:20.355Z,4.35
2023-04-17T05:41:48.270Z,4.68
2023-04-17T05:44:16.248Z,4.57
2023-04-17T05:46:44.139Z,4.50
2023-04-17T05:49:13.074Z,4.03
2023-04-17T05:51:42.449Z,4.28
2023-04-17T05:54:10.381Z,4.45
2023-04-17T05:56:40.268Z,4.28
2023-04-17T05:59:08.155Z,4.22
2023-04-17T06:01:36.281Z,4.13
2023-04-17T06:04:04.441Z,3.95
2023-04-17T06:06:32.774Z,4.80
2023-04-17T06:09:02.210Z,4.68
2023-04-17T06:11:30.147Z,4.53
2023-04-17T06:13:59.216Z,4.68
2023-04-17T06:16:28.060Z,4.72
2023-04-17T06:18:55.995Z,4.32
2023-04-17T06:21:23.876Z,4.90
2023-04-17T06:23:52.697Z,4.78
2023-04-17T06:26:22.224Z,5.10
2023-04-17T06:28:51.334Z,4.80
2023-04-17T06:31:19.349Z,4.03
2023-04-17T06:33:50.093Z,4.82
2023-04-17T06:36:20.377Z,5.00
2023-04-17T06:38:50.171Z,4.47
2023-04-17T06:41:22.427Z,4.53
2023-04-17T06:43:50.375Z,4.68
2023-04-17T06:46:18.337Z,4.40
2023-04-17T06:48:46.281Z,4.63
2023-04-17T06:51:14.136Z,4.50
2023-04-17T06:53:42.041Z,5.22
2023-04-17T06:56:09.920Z,4.55
2023-04-17T06:58:44.045Z,4.70
2023-04-17T07:01:12.135Z,4.68
2023-04-17T07:03:40.438Z,4.47
2023-04-17T07:06:09.017Z,4.75
2023-04-17T07:08:36.939Z,4.72
2023-04-17T07:11:04.856Z,4.60
2023-04-17T07:13:33.256Z,4.93
2023-04-17T07:16:03.685Z,4.65
2023-04-17T07:18:31.947Z,4.78
2023-04-17T07:20:59.893Z,4.90
2023-04-17T07:23:27.775Z,4.90
2023-04-17T07:25:55.753Z,5.18
2023-04-17T07:28:24.582Z,4.80
2023-04-17T07:30:52.953Z,5.32
2023-04-17T07:33:22.260Z,4.63
2023-04-17T07:35:50.173Z,5.38
2023-04-17T07:38:18.051Z,5.65
2023-04-17T07:40:45.924Z,5.40
2023-04-17T07:43:13.806Z,5.13
2023-04-17T07:45:42.081Z,5.22
2023-04-17T07:48:10.531Z,5.03
2023-04-17T07:50:39.832Z,4.85
2023-04-17T07:53:08.306Z,5.05
2023-04-17T07:55:36.646Z,5.57
2023-04-17T07:58:04.548Z,12.48
2023-04-17T08:00:32.475Z,18.95
2023-04-17T08:03:02.104Z,20.15
2023-04-17T08:05:30.511Z,16.75
2023-04-17T08:08:00.998Z,12.55
2023-04-17T08:10:29.286Z,14.82
2023-04-17T08:12:57.156Z,14.32
2023-04-17T08:15:25.116Z,14.05
2023-04-17T08:17:53.077Z,12.93
2023-04-17T08:20:21.987Z,14.23
2023-04-17T08:22:49.932Z,13.35
2023-04-17T08:25:19.291Z,13.25
2023-04-17T08:27:47.331Z,13.85
2023-04-17T08:30:18.879Z,13.80
2023-04-17T08:32:48.125Z,13.65
2023-04-17T08:35:17.184Z,13.15
2023-04-17T08:37:46.700Z,12.10
2023-04-17T08:40:16.072Z,13.00
2023-04-17T08:42:47.638Z,12.30
2023-04-17T08:45:16.152Z,12.48
2023-04-17T08:47:44.342Z,12.18
2023-04-17T08:50:13.664Z,12.25
2023-04-17T08:52:42.590Z,11.75
2023-04-17T08:55:13.965Z,10.88
2023-04-17T08:58:06.108Z,10.50
2023-04-17T09:00:35.780Z,11.48
2023-04-17T09:03:04.792Z,11.38
2023-04-17T09:05:34.093Z,11.02
2023-04-17T09:08:10.231Z,10.20
2023-04-17T09:10:39.103Z,10.25
2023-04-17T09:13:08.535Z,9.68
2023-04-17T09:15:36.857Z,9.68
2023-04-17T09:18:05.055Z,10.13
2023-04-17T09:20:33.568Z,9.20
2023-04-17T09:23:02.581Z,9.40
2023-04-17T09:25:30.667Z,9.32
2023-04-17T09:28:12.744Z,9.80
2023-04-17T09:30:40.778Z,9.18
2023-04-17T09:33:09.423Z,9.00
2023-04-17T09:35:40.011Z,9.23
2023-04-17T09:38:08.409Z,9.55
2023-04-17T09:40:40.052Z,9.00
2023-04-17T09:43:10.089Z,8.85
2023-04-17T09:45:42.466Z,8.60
2023-04-17T09:48:11.764Z,9.50
2023-04-17T09:50:39.751Z,9.18
2023-04-17T09:53:08.225Z,7.55
2023-04-17T09:55:38.044Z,7.70
2023-04-17T09:58:07.234Z,8.77
2023-04-17T10:00:36.146Z,8.10
2023-04-17T10:03:05.727Z,8.27
2023-04-17T10:05:33.824Z,8.65
2023-04-17T10:08:01.685Z,8.52
2023-04-17T10:10:32.418Z,8.32
2023-04-17T10:13:01.659Z,8.48
2023-04-17T10:15:29.820Z,8.18
2023-04-17T10:17:58.033Z,8.80
2023-04-17T10:20:44.924Z,7.90
2023-04-17T10:23:30.291Z,7.82
2023-04-17T10:26:37.918Z,7.63
2023-04-17T10:29:06.033Z,7.47
2023-04-17T10:32:24.279Z,7.35
2023-04-17T10:34:53.008Z,8.15
2023-04-17T10:37:23.276Z,7.97
2023-04-17T10:39:53.044Z,7.45
2023-04-17T10:42:21.220Z,7.40
2023-04-17T10:44:49.405Z,7.88
2023-04-17T10:47:20.545Z,7.35
2023-04-17T10:49:50.150Z,7.50
2023-04-17T10:52:39.707Z,7.78
2023-04-17T10:55:08.162Z,7.63
2023-04-17T10:57:59.618Z,7.00
2023-04-17T11:00:34.820Z,6.82
2023-04-17T11:03:03.058Z,7.22
2023-04-17T11:05:32.203Z,7.13
2023-04-17T11:08:01.418Z,6.80
2023-04-17T11:10:29.608Z,6.90
2023-04-17T11:12:57.648Z,7.07
2023-04-17T11:15:29.040Z,6.90
2023-04-17T11:17:57.994Z,6.90
2023-04-17T11:20:26.778Z,6.72
2023-04-17T11:22:54.779Z,6.75
2023-04-17T11:25:24.942Z,6.85
2023-04-17T11:27:53.874Z,6.10
2023-04-17T11:30:28.518Z,6.85
2023-04-17T11:32:58.039Z,6.45
2023-04-17T11:35:29.397Z,7.07
2023-04-17T11:38:12.260Z,6.40
2023-04-17T11:40:45.526Z,6.72
2023-04-17T11:43:13.489Z,6.07
2023-04-17T11:45:42.906Z,6.75
2023-04-17T11:48:11.650Z,5.88
2023-04-17T11:50:39.544Z,6.20
2023-04-17T11:53:07.570Z,6.10
2023-04-17T11:55:35.606Z,6.15
2023-04-17T11:58:06.552Z,6.20
2023-04-17T12:00:34.613Z,6.65
2023-04-17T12:03:03.879Z,6.30
2023-04-17T12:05:32.400Z,6.30
2023-04-17T12:08:04.532Z,5.82
2023-04-17T12:10:42.552Z,5.50
2023-04-17T12:13:12.314Z,5.57
2023-04-17T12:15:40.264Z,6.00
2023-04-17T12:18:09.270Z,6.47
2023-04-17T12:20:37.519Z,5.80
2023-04-17T12:23:05.665Z,5.75
2023-04-17T12:25:33.677Z,5.40
2023-04-17T12:28:04.772Z,6.10
2023-04-17T12:30:35.975Z,5.63
2023-04-17T12:33:04.678Z,6.00
2023-04-17T12:35:33.545Z,6.15
2023-04-17T12:38:01.440Z,5.07
2023-04-17T12:40:29.316Z,5.80
2023-04-17T12:42:57.184Z,5.50
2023-04-17T12:45:25.074Z,5.35
2023-04-17T12:47:55.013Z,5.43
2023-04-17T12:50:23.057Z,5.40
2023-04-17T12:52:51.042Z,5.13
2023-04-17T12:55:18.920Z,5.13
2023-04-17T12:57:47.156Z,5.60
2023-04-17T13:00:15.961Z,5.65
2023-04-17T13:02:43.917Z,5.40
2023-04-17T13:05:13.280Z,5.25
2023-04-17T13:07:41.140Z,5.28
2023-04-17T13:10:10.096Z,5.45
2023-04-17T13:12:37.988Z,4.93
2023-04-17T13:15:06.881Z,5.35
2023-04-17T13:17:34.910Z,5.05
2023-04-17T13:20:02.902Z,5.75
2023-04-17T13:22:32.207Z,5.10
2023-04-17T13:25:00.233Z,5.28
2023-04-17T13:27:28.217Z,4.68
2023-04-17T13:29:56.295Z,5.53
2023-04-17T13:32:24.280Z,5.15
2023-04-17T13:34:52.224Z,4.80
2023-04-17T13:37:21.142Z,4.90
2023-04-17T13:39:50.410Z,5.22
2023-04-17T13:42:19.331Z,4.88
2023-04-17T13:44:47.285Z,5.00
2023-04-17T13:47:15.227Z,4.45
2023-04-17T13:49:43.149Z,5.32
2023-04-17T13:52:10.992Z,4.65
2023-04-17T13:54:38.948Z,4.43
2023-04-17T13:57:08.194Z,4.70
2023-04-17T13:59:36.190Z,4.75
2023-04-17T14:02:04.762Z,5.00
2023-04-17T14:04:32.906Z,4.75
2023-04-17T14:07:00.957Z,5.47
2023-04-17T14:09:28.856Z,4.60
2023-04-17T14:11:57.004Z,4.45
2023-04-17T14:14:28.512Z,4.60
2023-04-17T14:16:56.492Z,4.60
2023-04-17T14:19:27.715Z,4.38
2023-04-17T14:21:59.290Z,4.75
2023-04-17T14:28:14.825Z,4.72
2023-04-17T14:30:44.103Z,4.80
2023-04-17T14:33:12.067Z,4.85
2023-04-17T14:35:44.815Z,4.35
2023-04-17T14:38:12.715Z,4.43
2023-04-17T14:40:58.962Z,4.38
2023-04-17T14:43:26.982Z,4.80
2023-04-17T14:45:56.418Z,4.38
2023-04-17T14:48:24.614Z,4.68
2023-04-17T14:50:52.696Z,4.18
2023-04-17T14:53:21.701Z,4.10
2023-04-17T14:55:49.930Z,4.45
2023-04-17T14:58:17.886Z,4.55
2023-04-17T15:00:45.829Z,3.95
2023-04-17T15:06:10.576Z,4.25
2023-04-17T15:08:38.924Z,4.13
2023-04-17T15:11:07.096Z,4.30
2023-04-17T15:13:35.821Z,4.00
2023-04-17T15:16:03.846Z,4.65
2023-04-17T15:18:34.594Z,4.38
2023-04-17T15:21:02.548Z,4.30
2023-04-17T15:23:30.464Z,4.20
2023-04-17T15:25:58.725Z,4.38
2023-04-17T15:28:26.688Z,4.38
2023-04-17T15:30:54.634Z,4.13
2023-04-17T15:33:22.540Z,4.10
2023-04-17T15:35:54.645Z,4.38
2023-04-17T15:38:22.586Z,4.13
2023-04-17T15:40:50.507Z,4.15
2023-04-17T15:43:18.498Z,4.25
2023-04-17T15:45:46.407Z,3.90
2023-04-17T15:48:24.438Z,3.95
2023-04-17T15:50:53.859Z,4.10
2023-04-17T15:53:21.915Z,4.03
2023-04-17T15:55:50.647Z,4.35
2023-04-17T15:58:18.580Z,4.03
2023-04-17T16:00:46.531Z,4.00
2023-04-17T16:03:14.774Z,4.55
2023-04-17T16:05:42.850Z,4.38
2023-04-17T16:08:12.309Z,4.50
2023-04-17T16:10:43.432Z,4.63
2023-04-17T16:13:33.286Z,4.32
2023-04-17T16:16:43.128Z,4.28
2023-04-17T16:22:22.225Z,4.68
2023-04-17T16:24:51.468Z,4.00
2023-04-17T16:27:19.369Z,4.30
2023-04-17T16:29:47.246Z,3.78
2023-04-17T16:32:15.370Z,4.30
2023-04-17T16:34:43.334Z,3.90
2023-04-17T16:37:11.242Z,4.45
2023-04-17T16:39:39.144Z,3.83
2023-04-17T16:42:08.395Z,4.10
2023-04-17T16:44:36.354Z,4.30
2023-04-17T16:47:13.367Z,4.35
2023-04-17T16:49:42.635Z,4.07
2023-04-17T16:52:10.769Z,4.05
2023-04-17T16:54:38.708Z,4.13
2023-04-17T16:57:08.006Z,4.57
2023-04-17T16:59:35.877Z,4.47
2023-04-17T17:02:04.015Z,4.10
2023-04-17T17:04:32.312Z,4.28
2023-04-17T17:07:00.434Z,4.20
2023-04-17T17:09:28.663Z,3.90
2023-04-17T17:11:56.768Z,4.55
2023-04-17T17:14:26.028Z,4.28
2023-04-17T17:16:54.361Z,4.30
2023-04-17T17:19:22.402Z,4.07
2023-04-17T17:21:50.733Z,4.00
2023-04-17T17:24:18.741Z,4.38
2023-04-17T17:26:46.661Z,4.07
2023-04-17T17:29:14.857Z,3.97
2023-04-17T17:31:44.682Z,3.90
2023-04-17T17:36:44.066Z,4.07
2023-04-17T17:39:12.239Z,4.18
2023-04-17T17:41:41.072Z,4.22
2023-04-17T17:44:09.118Z,4.32
2023-04-17T17:46:37.322Z,3.78
2023-04-17T17:49:06.773Z,3.88
2023-04-17T17:51:34.759Z,3.90
2023-04-17T17:54:02.707Z,3.80
2023-04-17T17:56:30.648Z,4.50
2023-04-17T17:58:58.558Z,3.80
2023-04-17T18:01:26.564Z,3.90
2023-04-17T18:03:54.660Z,3.88
2023-04-17T18:06:24.031Z,4.00
2023-04-17T18:08:52.906Z,4.03
2023-04-17T18:11:21.197Z,3.80
2023-04-17T18:13:49.110Z,4.32
2023-04-17T18:16:17.049Z,4.05
2023-04-17T18:18:44.949Z,3.67
2023-04-17T18:21:13.039Z,4.20
2023-04-17T18:23:42.267Z,4.22
2023-04-17T18:26:10.178Z,4.38
2023-04-17T18:28:38.590Z,4.13
2023-04-17T18:31:06.528Z,4.22
2023-04-17T18:33:34.473Z,4.22
2023-04-17T18:36:02.460Z,4.20
2023-04-17T18:38:30.377Z,4.15
2023-04-17T18:41:01.094Z,4.10
2023-04-17T18:43:29.498Z,3.78
2023-04-17T18:45:57.779Z,4.15
2023-04-17T18:48:26.337Z,4.28
2023-04-17T18:50:54.232Z,4.32
2023-04-17T18:53:22.127Z,4.05
2023-04-17T18:55:50.049Z,3.80
2023-04-17T18:58:19.272Z,3.95
2023-04-17T19:00:47.232Z,4.10
2023-04-17T19:03:15.150Z,3.88
2023-04-17T19:05:43.222Z,4.18
2023-04-17T19:08:11.644Z,4.03
2023-04-17T19:10:40.175Z,3.63
2023-04-17T19:13:09.776Z,3.97
2023-04-17T19:15:39.391Z,4.07
2023-04-17T19:18:08.814Z,3.92
2023-04-17T19:20:36.994Z,3.50
2023-04-17T19:23:05.424Z,3.67
2023-04-17T19:25:33.388Z,3.78
2023-04-17T19:28:01.281Z,3.58
2023-04-17T19:30:29.292Z,4.07
2023-04-17T19:32:58.558Z,3.65
2023-04-17T19:35:27.143Z,3.85
2023-04-17T19:37:55.035Z,3.75
2023-04-17T19:40:25.508Z,4.03
2023-04-17T19:42:53.981Z,4.00
2023-04-17T19:45:21.823Z,4.05
2023-04-17T19:47:54.994Z,4.00
2023-04-17T19:50:25.234Z,3.63
2023-04-17T19:52:53.246Z,3.75
2023-04-17T19:55:21.209Z,3.60
2023-04-17T19:57:50.348Z,3.95
2023-04-17T20:00:18.579Z,4.03
2023-04-17T20:02:47.004Z,3.90
2023-04-17T20:05:15.101Z,3.50
2023-04-17T20:07:44.333Z,3.85
2023-04-17T20:10:12.981Z,3.42
2023-04-17T20:12:40.998Z,3.97
2023-04-17T20:15:10.198Z,4.20
2023-04-17T20:17:38.124Z,3.70
2023-04-17T20:20:07.024Z,3.97
2023-04-17T20:22:34.939Z,3.83
2023-04-17T20:25:04.772Z,3.95
2023-04-17T20:27:32.662Z,3.67
2023-04-17T20:30:00.662Z,3.90
2023-04-17T20:32:28.600Z,4.05
2023-04-17T20:34:56.529Z,3.95
2023-04-17T20:37:24.501Z,4.18
2023-04-17T20:40:02.408Z,3.40
2023-04-17T20:42:35.661Z,4.32
2023-04-17T20:45:03.589Z,3.63
2023-04-17T20:47:31.527Z,4.13
2023-04-17T20:49:59.451Z,3.97
2023-04-17T20:52:27.344Z,4.20
2023-04-17T20:54:55.697Z,4.10
2023-04-17T20:57:24.016Z,4.13
2023-04-17T20:59:53.272Z,4.40
2023-04-17T21:02:21.762Z,4.40
2023-04-17T21:04:49.908Z,4.15
2023-04-17T21:07:17.889Z,4.10
2023-04-17T21:09:45.764Z,4.22
2023-04-17T21:12:13.691Z,4.30
2023-04-17T21:14:43.305Z,4.00
2023-04-17T21:17:12.673Z,4.35
2023-04-17T21:19:41.298Z,4.75
2023-04-17T21:22:11.529Z,4.50
2023-04-17T21:24:40.684Z,4.60
2023-04-17T21:27:08.657Z,4.70
2023-04-17T21:29:36.555Z,4.57
2023-04-17T21:32:04.703Z,4.70
2023-04-17T21:34:34.845Z,4.68
2023-04-17T21:37:03.989Z,4.90
2023-04-17T21:39:33.194Z,4.53
2023-04-17T21:42:01.852Z,4.28
2023-04-17T21:44:29.866Z,4.45
2023-04-17T21:46:57.749Z,4.35
2023-04-17T21:49:25.666Z,4.80
2023-04-17T21:51:55.017Z,4.78
2023-04-17T21:54:25.241Z,4.60
2023-04-17T21:56:53.146Z,4.28
2023-04-17T21:59:21.062Z,5.18
2023-04-17T22:01:48.985Z,4.47
2023-04-17T22:04:17.065Z,4.43
2023-04-17T22:06:45.052Z,4.80
2023-04-17T22:09:16.610Z,5.07
2023-04-17T22:11:44.483Z,4.50
2023-04-17T22:14:12.995Z,4.72
2023-04-17T22:16:41.164Z,4.57
2023-04-17T22:19:09.072Z,4.40
2023-04-17T22:21:36.998Z,4.55
2023-04-17T22:24:06.304Z,4.93
2023-04-17T22:26:35.542Z,4.55
2023-04-17T22:29:03.391Z,4.32
2023-04-17T22:31:31.353Z,4.90
2023-04-17T22:33:59.292Z,5.05
2023-04-17T22:36:27.300Z,4.28
2023-04-17T22:38:55.207Z,4.45
2023-04-17T22:41:23.102Z,5.10
2023-04-17T22:43:52.317Z,4.47
2023-04-17T22:46:20.378Z,4.78
2023-04-17T22:48:49.572Z,4.80
2023-04-17T22:51:17.909Z,4.72
2023-04-17T22:53:46.626Z,4.88
2023-04-17T22:56:14.612Z,4.32
2023-04-17T22:58:42.565Z,4.70
2023-04-17T23:01:11.884Z,5.00
2023-04-17T23:03:39.930Z,4.80
2023-04-17T23:06:08.645Z,4.60
2023-04-17T23:08:36.552Z,4.68
2023-04-17T23:11:05.886Z,4.97
2023-04-17T23:13:33.809Z,4.82
2023-04-17T23:16:01.693Z,4.78
2023-04-17T23:18:31.159Z,4.65
2023-04-17T23:20:59.027Z,4.72
2023-04-17T23:23:27.093Z,4.72
2023-04-17T23:25:54.996Z,4.65
2023-04-17T23:28:23.083Z,4.75
2023-04-17T23:30:50.970Z,4.68
2023-04-17T23:33:18.841Z,4.63
2023-04-17T23:35:48.072Z,4.80
2023-04-17T23:38:16.016Z,4.72
2023-04-17T23:40:43.971Z,4.78
2023-04-17T23:43:11.884Z,4.55
2023-04-17T23:45:39.826Z,5.25
2023-04-17T23:48:07.795Z,4.78
2023-04-17T23:50:35.725Z,4.80
2023-04-17T23:53:05.027Z,4.95
2023-04-17T23:55:32.942Z,4.72
2023-04-17T23:58:00.841Z,4.60
